createdAt,value
2016-12-25T00:00:32.432Z,7.49
2016-12-25T00:01:32.462Z,7.52
2016-12-25T00:02:32.467Z,7.5
2016-12-25T00:04:32.507Z,7.55
2016-12-25T00:06:32.543Z,7.49
2016-12-25T00:07:32.559Z,7.57
2016-12-25T00:08:32.575Z,7.68
2016-12-25T00:09:32.605Z,7.5
2016-12-25T00:10:32.614Z,7.46
2016-12-25T00:11:32.635Z,7.58
2016-12-25T00:12:47.571Z,7.67
2016-12-25T00:13:32.674Z,7.53
2016-12-25T00:14:32.689Z,7.53
2016-12-25T00:15:32.709Z,7.63
2016-12-25T00:16:32.725Z,7.67
2016-12-25T00:18:32.767Z,7.58
2016-12-25T00:19:32.788Z,7.6
2016-12-25T00:20:32.799Z,7.61
2016-12-25T00:21:32.826Z,7.68
2016-12-25T00:22:32.851Z,7.68
2016-12-25T00:23:47.775Z,7.6
2016-12-25T00:24:32.880Z,7.71
2016-12-25T00:25:32.900Z,7.61
2016-12-25T00:26:32.910Z,7.64
2016-12-25T00:27:32.931Z,7.68
2016-12-25T00:29:32.968Z,7.8
2016-12-25T00:30:32.987Z,7.63
2016-12-25T00:31:33.004Z,7.68
2016-12-25T00:32:33.022Z,7.74
2016-12-25T00:33:33.043Z,7.69
2016-12-25T00:34:33.088Z,7.69
2016-12-25T00:35:33.081Z,7.61
2016-12-25T00:36:33.100Z,7.72
2016-12-25T00:37:33.124Z,7.74
2016-12-25T00:38:33.136Z,7.58
2016-12-25T00:39:33.156Z,7.67
2016-12-25T00:40:48.092Z,7.74
2016-12-25T00:41:33.197Z,7.6
2016-12-25T00:42:33.210Z,7.68
2016-12-25T00:43:33.235Z,7.63
2016-12-25T00:44:48.167Z,7.64
2016-12-25T00:45:33.271Z,7.69
2016-12-25T00:46:33.286Z,7.72
2016-12-25T00:51:33.380Z,7.71
2016-12-25T00:52:33.406Z,7.67
2016-12-25T00:53:33.421Z,7.72
2016-12-25T00:54:33.436Z,7.71
2016-12-25T00:55:33.455Z,7.67
2016-12-25T00:56:33.479Z,7.68
2016-12-25T00:57:33.497Z,7.68
2016-12-25T00:58:33.512Z,7.68
2016-12-25T00:59:33.543Z,7.63
2016-12-25T01:00:48.469Z,7.71
2016-12-25T01:01:33.571Z,7.69
2016-12-25T01:02:33.588Z,7.68
2016-12-25T01:03:33.606Z,7.74
2016-12-25T01:04:33.656Z,7.58
2016-12-25T01:05:33.645Z,7.58
2016-12-25T01:06:33.668Z,7.57
2016-12-25T01:07:33.683Z,7.58
2016-12-25T01:08:33.703Z,7.58
2016-12-25T01:09:33.720Z,7.58
2016-12-25T01:10:48.658Z,7.64
2016-12-25T01:11:33.759Z,7.72
2016-12-25T01:12:33.784Z,7.58
2016-12-25T01:13:33.803Z,7.6
2016-12-25T01:14:33.814Z,7.69
2016-12-25T01:15:33.833Z,7.69
2016-12-25T01:16:48.771Z,7.74
2016-12-25T01:17:33.868Z,7.69
2016-12-25T01:18:33.888Z,7.68
2016-12-25T01:19:33.907Z,7.75
2016-12-25T01:20:33.936Z,7.71
2016-12-25T01:21:33.946Z,7.71
2016-12-25T01:22:33.968Z,7.67
2016-12-25T01:23:34.014Z,7.49
2016-12-25T01:24:48.923Z,7.23
2016-12-25T01:25:34.050Z,6.54
2016-12-25T01:26:48.960Z,5.68
2016-12-25T01:27:34.056Z,5.49
2016-12-25T01:28:48.994Z,5.27
2016-12-25T01:29:34.095Z,5.3
2016-12-25T01:30:34.119Z,5.22
2016-12-25T01:31:34.129Z,5.22
2016-12-25T01:32:49.068Z,5.39
2016-12-25T01:33:34.168Z,5.45
2016-12-25T01:34:34.187Z,5.43
2016-12-25T01:35:34.206Z,5.45
2016-12-25T01:36:34.224Z,5.53
2016-12-25T01:37:34.244Z,5.51
2016-12-25T01:38:34.260Z,5.49
2016-12-25T01:39:34.586Z,5.45
2016-12-25T01:40:34.298Z,5.58
2016-12-25T01:41:34.318Z,5.49
2016-12-25T01:42:34.363Z,5.51
2016-12-25T01:43:49.268Z,5.65
2016-12-25T01:44:34.400Z,5.57
2016-12-25T01:45:34.385Z,5.65
2016-12-25T01:46:34.409Z,5.65
2016-12-25T01:47:49.341Z,5.63
2016-12-25T01:48:34.444Z,5.58
2016-12-25T01:49:34.456Z,5.6
2016-12-25T01:50:34.477Z,5.64
2016-12-25T01:51:34.495Z,5.56
2016-12-25T01:52:34.511Z,5.64
2016-12-25T01:53:34.834Z,5.65
2016-12-25T01:55:34.568Z,5.49
2016-12-25T01:56:34.581Z,5.51
2016-12-25T01:57:34.600Z,5.51
2016-12-25T01:58:34.621Z,5.45
2016-12-25T01:59:49.554Z,5.49
2016-12-25T02:00:34.658Z,5.48
2016-12-25T02:01:34.670Z,5.39
2016-12-25T02:02:34.688Z,5.42
2016-12-25T02:03:34.705Z,5.3
2016-12-25T02:04:34.722Z,5.39
2016-12-25T02:05:34.748Z,5.43
2016-12-25T02:06:34.760Z,5.4
2016-12-25T02:07:34.775Z,5.4
2016-12-25T02:08:34.792Z,5.38
2016-12-25T02:09:34.814Z,5.43
2016-12-25T02:10:34.826Z,5.42
2016-12-25T02:11:34.849Z,5.53
2016-12-25T02:12:34.863Z,5.38
2016-12-25T02:13:34.881Z,5.45
2016-12-25T02:14:49.817Z,5.42
2016-12-25T02:15:34.918Z,5.38
2016-12-25T02:16:34.935Z,5.4
2016-12-25T02:17:34.954Z,5.56
2016-12-25T02:18:34.972Z,5.58
2016-12-25T02:19:49.904Z,5.53
2016-12-25T02:20:35.002Z,5.51
2016-12-25T02:21:35.022Z,5.48
2016-12-25T02:22:35.040Z,5.45
2016-12-25T02:23:35.055Z,5.56
2016-12-25T02:24:35.072Z,5.48
2016-12-25T02:25:35.096Z,5.46
2016-12-25T02:27:35.124Z,5.53
2016-12-25T02:28:35.147Z,5.57
2016-12-25T02:29:35.161Z,5.53
2016-12-25T02:30:35.181Z,5.63
2016-12-25T02:31:50.114Z,5.61
2016-12-25T02:32:35.218Z,5.64
2016-12-25T02:33:35.236Z,5.64
2016-12-25T02:34:35.250Z,5.57
2016-12-25T02:35:50.184Z,5.49
2016-12-25T02:36:35.287Z,5.56
2016-12-25T02:37:35.302Z,5.58
2016-12-25T02:38:35.319Z,5.63
2016-12-25T02:39:35.337Z,5.61
2016-12-25T02:40:35.355Z,5.58
2016-12-25T02:41:35.680Z,5.54
2016-12-25T02:42:35.392Z,5.54
2016-12-25T02:43:35.407Z,5.49
2016-12-25T02:44:35.425Z,5.64
2016-12-25T02:45:50.362Z,5.58
2016-12-25T02:46:50.378Z,5.68
2016-12-25T02:47:35.483Z,5.68
2016-12-25T02:48:35.500Z,5.65
2016-12-25T02:49:35.518Z,5.65
2016-12-25T02:50:35.533Z,5.64
2016-12-25T02:51:50.465Z,5.72
2016-12-25T02:52:35.565Z,5.74
2016-12-25T02:53:35.583Z,5.71
2016-12-25T02:54:35.601Z,5.67
2016-12-25T02:57:35.657Z,5.79
2016-12-25T02:59:35.691Z,5.64
2016-12-25T03:00:35.733Z,5.68
2016-12-25T03:01:35.729Z,5.61
2016-12-25T03:02:35.748Z,5.78
2016-12-25T03:03:50.679Z,5.65
2016-12-25T03:04:35.779Z,5.67
2016-12-25T03:05:35.797Z,5.64
2016-12-25T03:06:35.813Z,5.78
2016-12-25T03:07:50.752Z,5.72
2016-12-25T03:08:35.852Z,5.75
2016-12-25T03:09:35.866Z,5.71
2016-12-25T03:10:35.888Z,5.79
2016-12-25T03:11:35.903Z,5.72
2016-12-25T03:13:35.939Z,5.89
2016-12-25T03:14:35.958Z,5.76
2016-12-25T03:15:36.279Z,5.68
2016-12-25T03:16:35.996Z,5.72
2016-12-25T03:17:36.009Z,5.76
2016-12-25T03:18:36.028Z,5.78
2016-12-25T03:19:36.046Z,5.68
2016-12-25T03:20:36.067Z,5.74
2016-12-25T03:21:36.081Z,5.71
2016-12-25T03:22:51.020Z,5.76
2016-12-25T03:23:36.118Z,5.72
2016-12-25T03:24:36.139Z,5.81
2016-12-25T03:25:36.155Z,5.64
2016-12-25T03:26:36.170Z,5.75
2016-12-25T03:27:36.190Z,5.68
2016-12-25T03:29:36.224Z,5.65
2016-12-25T03:30:36.260Z,5.83
2016-12-25T03:31:36.260Z,5.63
2016-12-25T03:32:36.304Z,5.74
2016-12-25T03:33:36.295Z,5.76
2016-12-25T03:34:36.315Z,5.83
2016-12-25T03:35:51.249Z,5.83
2016-12-25T03:36:36.352Z,5.9
2016-12-25T03:37:36.367Z,5.85
2016-12-25T03:38:36.385Z,5.78
2016-12-25T03:39:36.405Z,5.72
2016-12-25T03:40:36.419Z,5.76
2016-12-25T03:42:36.457Z,5.85
2016-12-25T03:43:36.474Z,5.79
2016-12-25T03:44:36.494Z,5.86
2016-12-25T03:45:36.511Z,5.89
2016-12-25T03:47:36.545Z,5.86
2016-12-25T03:48:36.561Z,5.83
2016-12-25T03:49:36.582Z,5.89
2016-12-25T03:50:36.603Z,5.83
2016-12-25T03:51:36.615Z,5.91
2016-12-25T03:52:36.633Z,5.94
2016-12-25T03:53:36.651Z,5.96
2016-12-25T03:54:51.590Z,5.99
2016-12-25T03:55:36.991Z,5.86
2016-12-25T03:56:36.706Z,5.94
2016-12-25T03:57:36.723Z,5.94
2016-12-25T03:58:36.740Z,5.91
2016-12-25T03:59:36.771Z,5.82
2016-12-25T04:01:36.798Z,5.78
2016-12-25T04:03:36.831Z,5.83
2016-12-25T04:04:36.849Z,5.86
2016-12-25T04:05:51.784Z,5.82
2016-12-25T04:06:36.887Z,5.85
2016-12-25T04:07:36.905Z,5.86
2016-12-25T04:08:36.921Z,5.85
2016-12-25T04:09:36.937Z,5.86
2016-12-25T04:10:51.873Z,5.86
2016-12-25T04:11:36.975Z,5.86
2016-12-25T04:12:36.989Z,5.85
2016-12-25T04:13:37.010Z,5.86
2016-12-25T04:14:37.025Z,5.83
2016-12-25T04:15:37.043Z,5.83
2016-12-25T04:16:37.061Z,5.85
2016-12-25T04:17:37.080Z,5.82
2016-12-25T04:18:37.098Z,5.97
2016-12-25T04:19:37.121Z,5.79
2016-12-25T04:20:37.131Z,5.96
2016-12-25T04:21:37.157Z,5.97
2016-12-25T04:22:52.086Z,5.93
2016-12-25T04:23:37.185Z,5.96
2016-12-25T04:24:37.202Z,5.99
2016-12-25T04:25:37.252Z,6
2016-12-25T04:26:52.158Z,5.86
2016-12-25T04:27:37.256Z,5.85
2016-12-25T04:28:37.277Z,5.9
2016-12-25T04:29:37.292Z,5.94
2016-12-25T04:31:37.329Z,5.93
2016-12-25T04:32:37.347Z,6.01
2016-12-25T04:33:37.363Z,5.97
2016-12-25T04:34:37.383Z,5.99
2016-12-25T04:36:37.420Z,5.9
2016-12-25T04:37:52.354Z,5.86
2016-12-25T04:38:37.453Z,5.96
2016-12-25T04:39:37.506Z,5.97
2016-12-25T04:40:37.522Z,6.03
2016-12-25T04:41:37.506Z,6.01
2016-12-25T04:42:52.442Z,6.03
2016-12-25T04:43:37.542Z,5.99
2016-12-25T04:44:37.562Z,6.04
2016-12-25T04:45:37.580Z,5.99
2016-12-25T04:46:37.594Z,5.99
2016-12-25T04:47:37.617Z,6.14
2016-12-25T04:48:37.662Z,6.09
2016-12-25T04:49:37.648Z,6.15
2016-12-25T04:50:37.669Z,6.08
2016-12-25T04:51:37.685Z,6.09
2016-12-25T04:52:37.703Z,6.04
2016-12-25T04:53:37.725Z,6.12
2016-12-25T04:54:37.742Z,6.12
2016-12-25T04:55:37.756Z,6.14
2016-12-25T04:56:37.777Z,6.09
2016-12-25T04:57:52.712Z,6.08
2016-12-25T04:58:37.810Z,6.11
2016-12-25T04:59:37.829Z,6.11
2016-12-25T05:00:37.844Z,6.08
2016-12-25T05:02:37.881Z,6.08
2016-12-25T05:03:37.898Z,6
2016-12-25T05:04:37.920Z,6.08
2016-12-25T05:05:37.945Z,6.12
2016-12-25T05:06:37.953Z,6.08
2016-12-25T05:07:37.970Z,6.12
2016-12-25T05:08:37.993Z,6.11
2016-12-25T05:09:38.012Z,6.08
2016-12-25T05:10:52.943Z,6.08
2016-12-25T05:11:38.044Z,6.14
2016-12-25T05:12:38.060Z,6.15
2016-12-25T05:13:38.082Z,6.06
2016-12-25T05:14:38.096Z,6.11
2016-12-25T05:15:38.117Z,6.08
2016-12-25T05:16:38.134Z,6.08
2016-12-25T05:17:38.152Z,6.09
2016-12-25T05:18:38.172Z,6.09
2016-12-25T05:19:38.187Z,6.14
2016-12-25T05:20:38.208Z,6.08
2016-12-25T05:21:38.227Z,6.09
2016-12-25T05:22:38.242Z,6.08
2016-12-25T05:23:53.179Z,6.06
2016-12-25T05:24:38.278Z,6.12
2016-12-25T05:25:38.309Z,6.08
2016-12-25T05:26:38.312Z,6.15
2016-12-25T05:27:38.362Z,6.15
2016-12-25T05:28:38.349Z,6.12
2016-12-25T05:29:53.285Z,6.12
2016-12-25T05:30:38.387Z,6.08
2016-12-25T05:31:38.503Z,6.12
2016-12-25T05:32:38.421Z,6.17
2016-12-25T05:33:38.438Z,6.14
2016-12-25T05:34:53.381Z,6.09
2016-12-25T05:35:38.475Z,6.12
2016-12-25T05:36:38.494Z,6.08
2016-12-25T05:37:38.513Z,6.19
2016-12-25T05:38:38.531Z,6.18
2016-12-25T05:39:38.546Z,6.21
2016-12-25T05:40:38.567Z,6.22
2016-12-25T05:41:38.583Z,6.09
2016-12-25T05:42:38.601Z,6.12
2016-12-25T05:43:38.619Z,6.11
2016-12-25T05:44:38.643Z,6.19
2016-12-25T05:45:53.573Z,6.06
2016-12-25T05:46:38.674Z,6.12
2016-12-25T05:47:38.692Z,6.22
2016-12-25T05:48:38.708Z,6.14
2016-12-25T05:49:38.759Z,6.14
2016-12-25T05:50:38.746Z,6.18
2016-12-25T05:51:38.761Z,6.17
2016-12-25T05:52:38.781Z,6.19
2016-12-25T05:53:38.807Z,6.18
2016-12-25T05:55:38.835Z,6.19
2016-12-25T05:56:53.773Z,6.21
2016-12-25T05:57:53.790Z,6.18
2016-12-25T05:58:38.890Z,6.22
2016-12-25T05:59:38.913Z,6.22
2016-12-25T06:00:38.927Z,6.22
2016-12-25T06:01:53.861Z,6.22
2016-12-25T06:02:38.961Z,6.18
2016-12-25T06:03:38.981Z,6.09
2016-12-25T06:04:39.308Z,6.18
2016-12-25T06:05:39.016Z,6.19
2016-12-25T06:06:39.035Z,6.17
2016-12-25T06:08:39.072Z,6.22
2016-12-25T06:09:39.090Z,6.22
2016-12-25T06:10:39.110Z,6.28
2016-12-25T06:11:39.125Z,6.21
2016-12-25T06:12:39.141Z,6.19
2016-12-25T06:13:39.164Z,6.17
2016-12-25T06:14:39.179Z,6.25
2016-12-25T06:15:39.226Z,6.21
2016-12-25T06:16:39.215Z,6.25
2016-12-25T06:17:54.151Z,6.34
2016-12-25T06:18:39.258Z,6.38
2016-12-25T06:19:39.272Z,6.36
2016-12-25T06:20:39.287Z,6.34
2016-12-25T06:21:39.308Z,6.34
2016-12-25T06:22:39.325Z,6.22
2016-12-25T06:23:39.345Z,6.31
2016-12-25T06:24:39.363Z,6.28
2016-12-25T06:25:39.379Z,6.3
2016-12-25T06:26:39.399Z,6.4
2016-12-25T06:27:39.414Z,6.41
2016-12-25T06:28:54.352Z,6.37
2016-12-25T06:29:54.369Z,6.38
2016-12-25T06:30:39.476Z,6.43
2016-12-25T06:31:39.485Z,6.41
2016-12-25T06:32:54.425Z,6.55
2016-12-25T06:33:39.524Z,6.41
2016-12-25T06:34:39.543Z,6.41
2016-12-25T06:35:39.560Z,6.52
2016-12-25T06:36:39.578Z,6.46
2016-12-25T06:37:39.604Z,6.52
2016-12-25T06:38:39.614Z,6.38
2016-12-25T06:39:39.660Z,6.64
2016-12-25T06:42:39.687Z,6.59
2016-12-25T06:43:39.706Z,6.64
2016-12-25T06:44:39.724Z,6.64
2016-12-25T06:45:39.744Z,6.52
2016-12-25T06:46:39.759Z,6.69
2016-12-25T06:47:39.781Z,6.61
2016-12-25T06:48:39.796Z,6.55
2016-12-25T06:49:39.815Z,6.64
2016-12-25T06:50:39.834Z,6.59
2016-12-25T06:51:39.852Z,6.61
2016-12-25T06:52:39.868Z,6.59
2016-12-25T06:53:39.887Z,6.58
2016-12-25T06:54:39.910Z,6.7
2016-12-25T06:56:39.944Z,6.64
2016-12-25T06:57:54.881Z,6.69
2016-12-25T06:58:39.982Z,6.73
2016-12-25T06:59:54.917Z,6.71
2016-12-25T07:00:40.018Z,6.7
2016-12-25T07:01:40.033Z,6.7
2016-12-25T07:02:40.088Z,6.61
2016-12-25T07:03:40.071Z,6.74
2016-12-25T07:04:55.006Z,6.71
2016-12-25T07:05:40.106Z,6.76
2016-12-25T07:06:40.126Z,6.69
2016-12-25T07:07:40.145Z,6.73
2016-12-25T07:08:40.160Z,6.69
2016-12-25T07:09:40.182Z,6.64
2016-12-25T07:10:40.199Z,6.69
2016-12-25T07:11:40.217Z,6.71
2016-12-25T07:12:40.235Z,6.76
2016-12-25T07:13:40.252Z,6.74
2016-12-25T07:14:40.272Z,6.73
2016-12-25T07:15:40.290Z,6.71
2016-12-25T07:16:40.309Z,6.71
2016-12-25T07:17:40.375Z,6.76
2016-12-25T07:18:40.345Z,6.84
2016-12-25T07:19:40.364Z,6.8
2016-12-25T07:20:55.299Z,6.87
2016-12-25T07:21:40.710Z,6.79
2016-12-25T07:23:40.442Z,6.87
2016-12-25T07:24:40.452Z,6.95
2016-12-25T07:25:40.474Z,6.84
2016-12-25T07:26:40.491Z,6.84
2016-12-25T07:27:40.514Z,6.89
2016-12-25T07:28:40.528Z,6.95
2016-12-25T07:29:40.547Z,6.85
2016-12-25T07:30:40.873Z,6.81
2016-12-25T07:31:55.509Z,6.91
2016-12-25T07:32:40.605Z,6.95
2016-12-25T07:33:40.622Z,6.89
2016-12-25T07:34:40.638Z,6.92
2016-12-25T07:35:40.659Z,6.98
2016-12-25T07:36:55.594Z,6.94
2016-12-25T07:37:40.695Z,7.05
2016-12-25T07:38:40.714Z,7.02
2016-12-25T07:39:40.730Z,6.99
2016-12-25T07:40:40.748Z,7.1
2016-12-25T07:41:40.767Z,7.09
2016-12-25T07:42:41.088Z,6.97
2016-12-25T07:43:40.809Z,7.1
2016-12-25T07:45:40.841Z,7.07
2016-12-25T07:46:55.779Z,7.15
2016-12-25T07:47:55.797Z,7.12
2016-12-25T07:48:55.815Z,7.07
2016-12-25T07:49:40.914Z,7.2
2016-12-25T07:50:40.934Z,7.13
2016-12-25T07:51:40.952Z,7.28
2016-12-25T07:52:55.889Z,7.16
2016-12-25T07:53:40.990Z,7.24
2016-12-25T07:54:41.008Z,7.32
2016-12-25T07:56:41.045Z,7.3
2016-12-25T07:58:41.085Z,7.34
2016-12-25T08:00:41.120Z,7.45
2016-12-25T08:01:41.138Z,7.48
2016-12-25T08:02:41.157Z,7.52
2016-12-25T08:03:41.178Z,7.55
2016-12-25T08:04:41.194Z,7.55
2016-12-25T08:05:41.220Z,7.57
2016-12-25T08:06:41.237Z,7.55
2016-12-25T08:07:56.168Z,7.6
2016-12-25T08:08:41.269Z,7.53
2016-12-25T08:09:41.287Z,7.68
2016-12-25T08:10:41.309Z,7.57
2016-12-25T08:11:41.324Z,7.55
2016-12-25T08:12:41.345Z,7.67
2016-12-25T08:13:41.363Z,7.63
2016-12-25T08:14:41.379Z,7.57
2016-12-25T08:15:41.401Z,7.72
2016-12-25T08:16:41.416Z,7.72
2016-12-25T08:17:56.355Z,7.77
2016-12-25T08:18:56.372Z,7.79
2016-12-25T08:19:41.503Z,7.68
2016-12-25T08:20:41.490Z,7.85
2016-12-25T08:21:41.510Z,7.85
2016-12-25T08:22:41.528Z,7.82
2016-12-25T08:23:41.548Z,7.92
2016-12-25T08:24:41.567Z,7.8
2016-12-25T08:25:41.583Z,7.93
2016-12-25T08:27:41.624Z,7.9
2016-12-25T08:28:41.670Z,8.01
2016-12-25T08:29:41.659Z,8
2016-12-25T08:30:41.682Z,7.93
2016-12-25T08:31:41.698Z,8.05
2016-12-25T08:32:41.717Z,8
2016-12-25T08:33:56.654Z,8
2016-12-25T08:34:41.753Z,7.98
2016-12-25T08:35:56.691Z,8.04
2016-12-25T08:36:41.789Z,8.04
2016-12-25T08:38:41.827Z,8.04
2016-12-25T08:39:56.767Z,8.1
2016-12-25T08:40:41.866Z,8.1
2016-12-25T08:41:41.891Z,8.23
2016-12-25T08:42:41.903Z,8.26
2016-12-25T08:43:41.922Z,8.23
2016-12-25T08:46:41.982Z,8.22
2016-12-25T08:48:42.017Z,8.23
2016-12-25T08:49:42.037Z,8.36
2016-12-25T08:50:42.080Z,8.25
2016-12-25T08:51:42.074Z,8.36
2016-12-25T08:52:42.102Z,8.34
2016-12-25T08:53:42.112Z,8.2
2016-12-25T08:54:42.132Z,8.26
2016-12-25T08:55:57.069Z,8.29
2016-12-25T08:56:42.171Z,8.33
2016-12-25T08:57:42.197Z,8.34
2016-12-25T08:58:42.207Z,8.37
2016-12-25T08:59:42.228Z,8.29
2016-12-25T09:00:42.245Z,8.45
2016-12-25T09:02:42.289Z,8.4
2016-12-25T09:03:42.304Z,8.43
2016-12-25T09:04:42.326Z,8.37
2016-12-25T09:05:42.342Z,8.41
2016-12-25T09:06:42.365Z,8.41
2016-12-25T09:07:42.383Z,8.43
2016-12-25T09:08:42.403Z,8.4
2016-12-25T09:09:42.418Z,8.56
2016-12-25T09:10:42.440Z,8.44
2016-12-25T09:11:57.376Z,8.38
2016-12-25T09:12:42.478Z,8.44
2016-12-25T09:14:42.515Z,8.41
2016-12-25T09:15:42.536Z,8.43
2016-12-25T09:16:42.554Z,8.41
2016-12-25T09:18:42.593Z,8.44
2016-12-25T09:19:42.613Z,8.43
2016-12-25T09:20:42.630Z,8.41
2016-12-25T09:21:42.648Z,8.47
2016-12-25T09:22:57.589Z,8.43
2016-12-25T09:23:42.697Z,8.45
2016-12-25T09:24:42.710Z,8.45
2016-12-25T09:25:42.729Z,8.45
2016-12-25T09:26:42.747Z,8.44
2016-12-25T09:27:57.685Z,8.45
2016-12-25T09:28:42.787Z,8.43
2016-12-25T09:29:42.805Z,8.43
2016-12-25T09:31:42.847Z,8.43
2016-12-25T09:32:42.864Z,8.41
2016-12-25T09:33:42.882Z,8.4
2016-12-25T09:36:42.947Z,8.5
2016-12-25T09:37:42.961Z,8.47
2016-12-25T09:38:42.983Z,8.47
2016-12-25T09:39:43.000Z,8.45
2016-12-25T09:40:43.019Z,8.52
2016-12-25T09:41:43.040Z,8.48
2016-12-25T09:42:57.978Z,8.48
2016-12-25T09:43:43.080Z,8.45
2016-12-25T09:44:43.098Z,8.52
2016-12-25T09:45:43.116Z,8.44
2016-12-25T09:46:43.138Z,8.41
2016-12-25T09:47:43.157Z,8.48
2016-12-25T09:48:43.178Z,8.56
2016-12-25T09:50:43.216Z,8.52
2016-12-25T09:51:43.234Z,8.53
2016-12-25T09:52:43.259Z,8.52
2016-12-25T09:53:58.241Z,8.55
2016-12-25T09:54:43.294Z,8.55
2016-12-25T09:55:43.333Z,8.58
2016-12-25T09:56:43.335Z,8.55
2016-12-25T09:57:43.354Z,8.53
2016-12-25T09:58:43.371Z,8.56
2016-12-25T09:59:43.387Z,8.56
2016-12-25T10:00:43.410Z,8.55
2016-12-25T10:01:43.437Z,8.58
2016-12-25T10:02:43.447Z,8.62
2016-12-25T10:03:43.498Z,8.53
2016-12-25T10:05:43.508Z,8.53
2016-12-25T10:06:43.527Z,8.55
2016-12-25T10:07:43.547Z,8.48
2016-12-25T10:08:43.592Z,8.48
2016-12-25T10:09:43.584Z,8.52
2016-12-25T10:10:43.610Z,8.5
2016-12-25T10:11:43.626Z,8.47
2016-12-25T10:12:43.647Z,8.53
2016-12-25T10:13:43.666Z,8.56
2016-12-25T10:14:58.601Z,8.45
2016-12-25T10:15:43.702Z,8.56
2016-12-25T10:17:43.739Z,8.61
2016-12-25T10:18:43.792Z,8.71
2016-12-25T10:19:43.779Z,8.68
2016-12-25T10:22:43.835Z,8.74
2016-12-25T10:23:43.860Z,8.68
2016-12-25T10:24:43.875Z,8.7
2016-12-25T10:25:43.896Z,8.74
2016-12-25T10:26:43.917Z,8.74
2016-12-25T10:27:43.935Z,8.76
2016-12-25T10:28:43.954Z,8.74
2016-12-25T10:29:43.976Z,8.77
2016-12-25T10:30:58.913Z,8.74
2016-12-25T10:31:44.012Z,8.73
2016-12-25T10:32:44.035Z,8.73
2016-12-25T10:33:44.052Z,8.77
2016-12-25T10:34:44.073Z,8.73
2016-12-25T10:35:44.091Z,8.73
2016-12-25T10:36:44.112Z,8.76
2016-12-25T10:37:44.133Z,8.76
2016-12-25T10:38:44.154Z,8.83
2016-12-25T10:39:44.169Z,8.79
2016-12-25T10:40:44.193Z,8.87
2016-12-25T10:41:44.210Z,8.89
2016-12-25T10:42:44.236Z,8.86
2016-12-25T10:43:44.251Z,8.81
2016-12-25T10:44:44.270Z,8.87
2016-12-25T10:46:59.227Z,8.91
2016-12-25T10:47:44.329Z,8.89
2016-12-25T10:48:44.349Z,8.89
2016-12-25T10:49:44.372Z,8.84
2016-12-25T10:50:44.390Z,8.87
2016-12-25T10:51:44.413Z,8.92
2016-12-25T10:52:44.426Z,8.86
2016-12-25T10:53:44.448Z,8.86
2016-12-25T10:54:59.388Z,8.84
2016-12-25T10:55:44.486Z,8.84
2016-12-25T10:56:44.505Z,8.87
2016-12-25T10:57:44.526Z,8.98
2016-12-25T10:58:59.463Z,8.91
2016-12-25T10:59:44.566Z,8.91
2016-12-25T11:00:44.586Z,9.01
2016-12-25T11:01:44.607Z,8.92
2016-12-25T11:02:59.545Z,8.95
2016-12-25T11:03:44.643Z,9.02
2016-12-25T11:04:44.666Z,8.99
2016-12-25T11:05:44.686Z,8.96
2016-12-25T11:06:44.703Z,9.02
2016-12-25T11:07:44.724Z,8.98
2016-12-25T11:08:44.743Z,8.96
2016-12-25T11:11:44.803Z,8.96
2016-12-25T11:12:44.826Z,8.94
2016-12-25T11:13:44.846Z,8.91
2016-12-25T11:14:44.863Z,9.01
2016-12-25T11:15:44.882Z,8.96
2016-12-25T11:16:44.904Z,9.02
2016-12-25T11:17:59.841Z,8.96
2016-12-25T11:18:44.943Z,8.96
2016-12-25T11:19:44.960Z,8.96
2016-12-25T11:20:44.980Z,9.02
2016-12-25T11:21:45.002Z,9.01
2016-12-25T11:22:45.026Z,8.96
2016-12-25T11:23:45.045Z,8.98
2016-12-25T11:25:45.080Z,8.94
2016-12-25T11:26:45.100Z,8.96
2016-12-25T11:29:00.060Z,8.98
2016-12-25T11:30:00.078Z,8.99
2016-12-25T11:30:45.180Z,8.95
2016-12-25T11:31:45.198Z,8.98
2016-12-25T11:32:45.219Z,9.1
2016-12-25T11:33:45.239Z,9.05
2016-12-25T11:34:45.257Z,9.05
2016-12-25T11:35:45.277Z,9.05
2016-12-25T11:36:45.300Z,8.99
2016-12-25T11:37:45.318Z,9.01
2016-12-25T11:38:45.337Z,9.05
2016-12-25T11:39:45.363Z,9.05
2016-12-25T11:40:45.379Z,9.08
2016-12-25T11:41:45.405Z,8.95
2016-12-25T11:42:45.419Z,8.96
2016-12-25T11:44:00.357Z,8.95
2016-12-25T11:44:45.460Z,8.99
2016-12-25T11:45:45.483Z,8.99
2016-12-25T11:46:45.497Z,8.99
2016-12-25T11:47:45.529Z,8.96
2016-12-25T11:48:45.535Z,8.99
2016-12-25T11:50:00.475Z,9.02
2016-12-25T11:50:45.578Z,8.95
2016-12-25T11:51:45.597Z,8.95
2016-12-25T11:52:45.641Z,9.08
2016-12-25T11:53:45.635Z,8.94
2016-12-25T11:54:45.655Z,9.05
2016-12-25T11:55:45.677Z,9.04
2016-12-25T11:56:45.696Z,9.08
2016-12-25T11:57:45.715Z,9.05
2016-12-25T11:58:45.735Z,9.1
2016-12-25T11:59:45.754Z,8.99
2016-12-25T12:00:45.776Z,9.02
2016-12-25T12:01:45.798Z,9.04
2016-12-25T12:02:46.015Z,9.02
2016-12-25T12:03:45.838Z,9.1
2016-12-25T12:04:45.852Z,9.04
2016-12-25T12:06:00.792Z,9.05
2016-12-25T12:06:45.894Z,9.14
2016-12-25T12:07:45.915Z,9.1
2016-12-25T12:08:45.931Z,9.08
2016-12-25T12:09:45.952Z,9.1
2016-12-25T12:10:46.006Z,9.1
2016-12-25T12:11:45.990Z,9.08
2016-12-25T12:12:46.011Z,9.02
2016-12-25T12:13:46.032Z,9.08
2016-12-25T12:14:46.053Z,9.11
2016-12-25T12:15:46.073Z,9.17
2016-12-25T12:16:46.093Z,9.1
2016-12-25T12:17:46.113Z,9.15
2016-12-25T12:18:46.133Z,9.02
2016-12-25T12:19:46.152Z,9.13
2016-12-25T12:20:46.175Z,9.14
2016-12-25T12:22:01.115Z,9.17
2016-12-25T12:22:46.260Z,9.1
2016-12-25T12:23:46.233Z,9.15
2016-12-25T12:24:46.252Z,9.11
2016-12-25T12:25:46.270Z,9.08
2016-12-25T12:27:46.339Z,9.11
2016-12-25T12:28:46.328Z,9.05
2016-12-25T12:29:46.352Z,9.21
2016-12-25T12:30:46.369Z,9.23
2016-12-25T12:32:01.310Z,9.14
2016-12-25T12:33:01.329Z,9.1
2016-12-25T12:33:46.429Z,9.11
2016-12-25T12:34:46.450Z,9.18
2016-12-25T12:35:46.471Z,9.15
2016-12-25T12:36:46.490Z,9.14
2016-12-25T12:38:01.427Z,9.11
2016-12-25T12:38:46.529Z,9.08
2016-12-25T12:39:46.547Z,9.18
2016-12-25T12:40:46.568Z,9.23
2016-12-25T12:41:46.592Z,9.17
2016-12-25T12:42:46.611Z,9.18
2016-12-25T12:43:46.627Z,9.26
2016-12-25T12:44:46.648Z,9.24
2016-12-25T12:46:46.686Z,9.13
2016-12-25T12:48:01.627Z,9.13
2016-12-25T12:50:01.664Z,9.18
2016-12-25T12:50:46.771Z,9.18
2016-12-25T12:51:46.786Z,9.21
2016-12-25T12:53:01.724Z,9.29
2016-12-25T12:53:46.832Z,9.13
2016-12-25T12:54:46.845Z,9.21
2016-12-25T12:55:46.864Z,9.28
2016-12-25T12:56:46.895Z,9.26
2016-12-25T12:57:46.910Z,9.24
2016-12-25T12:58:46.930Z,9.29
2016-12-25T12:59:46.947Z,9.32
2016-12-25T13:00:46.968Z,9.31
2016-12-25T13:01:46.983Z,9.29
2016-12-25T13:02:47.007Z,9.32
2016-12-25T13:04:01.943Z,9.39
2016-12-25T13:04:47.046Z,9.31
2016-12-25T13:05:47.066Z,9.36
2016-12-25T13:06:47.086Z,9.38
2016-12-25T13:07:47.104Z,9.29
2016-12-25T13:08:47.123Z,9.24
2016-12-25T13:09:47.141Z,9.35
2016-12-25T13:10:47.164Z,9.32
2016-12-25T13:11:47.182Z,9.31
2016-12-25T13:12:47.201Z,9.39
2016-12-25T13:13:47.222Z,9.42
2016-12-25T13:14:47.243Z,9.36
2016-12-25T13:15:47.264Z,9.36
2016-12-25T13:16:47.284Z,9.35
2016-12-25T13:18:47.323Z,9.39
2016-12-25T13:19:47.349Z,9.38
2016-12-25T13:21:02.281Z,9.33
2016-12-25T13:21:47.389Z,9.36
2016-12-25T13:22:47.401Z,9.33
2016-12-25T13:23:47.423Z,9.43
2016-12-25T13:25:02.361Z,9.48
2016-12-25T13:25:47.767Z,9.33
2016-12-25T13:26:47.785Z,9.47
2016-12-25T13:27:47.504Z,9.4
2016-12-25T13:28:47.524Z,9.4
2016-12-25T13:30:47.566Z,9.48
2016-12-25T13:31:47.585Z,9.43
2016-12-25T13:32:47.602Z,9.46
2016-12-25T13:33:47.952Z,9.48
2016-12-25T13:34:47.645Z,9.47
2016-12-25T13:36:02.581Z,9.43
2016-12-25T13:36:47.683Z,9.46
2016-12-25T13:37:47.703Z,9.56
2016-12-25T13:38:47.721Z,9.46
2016-12-25T13:39:47.747Z,9.43
2016-12-25T13:41:02.682Z,9.46
2016-12-25T13:41:47.787Z,9.48
2016-12-25T13:42:47.800Z,9.48
2016-12-25T13:43:47.825Z,9.5
2016-12-25T13:44:47.849Z,9.43
2016-12-25T13:45:47.863Z,9.4
2016-12-25T13:46:47.884Z,9.43
2016-12-25T13:48:47.924Z,9.46
2016-12-25T13:49:47.943Z,9.4
2016-12-25T13:50:47.967Z,9.46
2016-12-25T13:51:48.041Z,9.47
2016-12-25T13:53:02.924Z,9.46
2016-12-25T13:53:48.025Z,9.5
2016-12-25T13:54:48.047Z,9.47
2016-12-25T13:55:48.067Z,9.56
2016-12-25T13:57:03.004Z,9.5
2016-12-25T13:57:48.102Z,9.5
2016-12-25T13:58:48.125Z,9.56
2016-12-25T13:59:48.144Z,9.61
2016-12-25T14:00:48.163Z,9.47
2016-12-25T14:01:48.189Z,9.53
2016-12-25T14:03:48.228Z,9.58
2016-12-25T14:04:48.551Z,9.54
2016-12-25T14:05:48.271Z,9.56
2016-12-25T14:06:48.287Z,9.64
2016-12-25T14:07:48.307Z,9.57
2016-12-25T14:08:48.328Z,9.58
2016-12-25T14:09:48.346Z,9.61
2016-12-25T14:10:48.367Z,9.58
2016-12-25T14:11:48.385Z,9.61
2016-12-25T14:13:03.326Z,9.58
2016-12-25T14:13:48.426Z,9.57
2016-12-25T14:14:48.447Z,9.57
2016-12-25T14:15:48.474Z,9.65
2016-12-25T14:16:48.488Z,9.6
2016-12-25T14:17:48.507Z,9.54
2016-12-25T14:18:48.527Z,9.6
2016-12-25T14:19:48.597Z,9.57
2016-12-25T14:20:48.569Z,9.56